Archival Weather

Chicago O'Hare International

Chicago, Illinois (KORD)

Report from: Saturday, March 18, 2023 8:51 AM CDT
Current time: Saturday, March 2, 2024 4:15 AM CST

Current weather – Weather history – Daily summaries
Weather forecast

Temperature-9.4°C (15.1°F)
Wind chill-19.4°C (-2.9°F)
Dew point-16.7°C (1.9°F)
Winds 19 kts (9.8 m/s, 21.9 mph) West-Northwest (290°)
Wind gusts 27 kts (13.9 m/s, 31.1 mph)
Peak wind 27 kts (13.9 m/s, 31.1 mph) West-Northwest (290°) at 13:51
Visibility10 mi. (16.1 km)
Clouds Scattered clouds 2,500 ft. (762 m)
Ceiling: Broken clouds 2,900 ft. (884 m)
Altimeter29.99 in.Hg (1016 mB)
PrecipitiationTrace
Precip. events Snow began 1:03 PM
Snow ended 1:46 PM
Relative humidity55 %
Density altitude-3,127 ft. (-953 m)
Sea-level pressure101.7 kPa (1017 mB, 30.02 in.Hg)
Remarks Automated weather observing station with precipitation discriminator
Flight conditions Marginal Visual Meteorological Conditions
Raw dataKORD 181351Z 29019G27KT 10SM SCT025 BKN029 M09/M17 A2999 RMK AO2 PK WND 29027/1351 SNB03E46 SLP165 VCSH P0000 T10941167
An error has occurred. This application may no longer respond until reloaded. Reload 🗙